createdAt,value
2019-05-13T00:00:48.430Z,1.30
2019-05-13T00:03:49.485Z,1.50
2019-05-13T00:06:50.193Z,1.50
2019-05-13T00:09:48.009Z,1.60
2019-05-13T00:12:56.034Z,2.07
2019-05-13T00:16:04.117Z,1.60
2019-05-13T00:19:14.113Z,1.80
2019-05-13T00:22:23.413Z,1.57
2019-05-13T00:25:33.947Z,1.47
2019-05-13T00:28:41.289Z,1.80
2019-05-13T00:31:49.350Z,1.67
2019-05-13T00:34:57.372Z,1.87
2019-05-13T00:37:57.704Z,1.77
2019-05-13T00:40:58.577Z,1.70
2019-05-13T00:43:59.542Z,1.90
2019-05-13T00:47:00.389Z,1.60
2019-05-13T00:50:03.515Z,1.47
2019-05-13T00:53:04.530Z,1.50
2019-05-13T00:56:05.839Z,1.80
2019-05-13T00:59:06.549Z,1.43
2019-05-13T01:02:07.233Z,1.70
2019-05-13T01:05:08.309Z,1.70
2019-05-13T01:08:09.125Z,1.60
2019-05-13T01:11:09.724Z,1.47
2019-05-13T01:14:10.393Z,2.10
2019-05-13T01:17:11.090Z,1.77
2019-05-13T01:20:14.172Z,1.93
2019-05-13T01:23:14.472Z,1.70
2019-05-13T01:26:15.125Z,1.80
2019-05-13T01:29:15.801Z,1.70
2019-05-13T01:32:16.390Z,1.47
2019-05-13T01:35:17.097Z,2.93
2019-05-13T01:38:17.789Z,2.73
2019-05-13T01:41:18.569Z,1.97
2019-05-13T01:44:19.848Z,3.67
2019-05-13T01:47:20.544Z,4.30
2019-05-13T01:50:21.210Z,3.60
2019-05-13T01:53:24.198Z,3.07
2019-05-13T01:56:24.829Z,3.77
2019-05-13T01:59:25.521Z,3.17
2019-05-13T02:02:26.218Z,2.57
2019-05-13T02:05:26.754Z,2.50
2019-05-13T02:08:27.594Z,2.20
2019-05-13T02:11:16.465Z,1.90
2019-05-13T02:14:24.505Z,1.77
2019-05-13T02:17:33.733Z,2.07
2019-05-13T02:20:44.386Z,1.70
2019-05-13T02:23:53.660Z,1.53
2019-05-13T02:27:03.703Z,1.37
2019-05-13T02:30:15.548Z,1.67
2019-05-13T02:36:48.354Z,1.80
2019-05-13T02:39:56.366Z,1.77
2019-05-13T02:43:04.598Z,1.90
2019-05-13T02:46:13.092Z,2.10
2019-05-13T02:49:23.121Z,1.80
2019-05-13T02:52:33.450Z,1.77
2019-05-13T02:55:43.618Z,1.60
2019-05-13T02:58:52.567Z,1.77
2019-05-13T03:02:03.676Z,1.60
2019-05-13T03:05:13.657Z,1.47
2019-05-13T03:08:37.999Z,1.70
2019-05-13T03:11:33.131Z,1.70
2019-05-13T03:14:47.486Z,2.20
2019-05-13T03:18:09.292Z,1.90
2019-05-13T03:21:18.996Z,2.27
2019-05-13T03:24:28.694Z,1.97
2019-05-13T03:27:36.721Z,1.93
2019-05-13T03:30:46.051Z,1.90
2019-05-13T03:33:56.399Z,2.40
2019-05-13T03:37:06.795Z,1.87
2019-05-13T03:40:06.531Z,2.63
2019-05-13T03:43:07.358Z,2.57
2019-05-13T03:46:08.183Z,2.50
2019-05-13T03:49:13.292Z,2.10
2019-05-13T03:52:13.461Z,2.13
2019-05-13T03:55:14.688Z,2.40
2019-05-13T03:58:15.469Z,2.57
2019-05-13T04:01:16.237Z,2.33
2019-05-13T04:04:16.622Z,2.03
2019-05-13T04:07:17.305Z,2.20
2019-05-13T04:10:18.291Z,2.27
2019-05-13T04:13:18.997Z,2.77
2019-05-13T04:16:23.317Z,2.30
2019-05-13T04:19:23.319Z,2.20
2019-05-13T04:22:24.219Z,2.27
2019-05-13T04:25:24.917Z,2.93
2019-05-13T04:28:25.396Z,2.97
2019-05-13T04:31:26.458Z,3.43
2019-05-13T04:34:27.281Z,5.10
2019-05-13T04:37:27.854Z,4.67
2019-05-13T04:40:28.729Z,4.03
2019-05-13T04:43:33.700Z,2.83
2019-05-13T04:46:33.000Z,2.97
2019-05-13T04:49:32.799Z,3.00
2019-05-13T04:52:22.456Z,3.60
2019-05-13T04:55:33.274Z,2.70
2019-05-13T04:58:42.792Z,2.70
2019-05-13T05:02:09.241Z,3.70
2019-05-13T05:05:38.257Z,2.40
2019-05-13T05:09:06.267Z,3.50
2019-05-13T05:12:33.531Z,3.50
2019-05-13T05:16:02.872Z,2.67
2019-05-13T05:19:32.114Z,3.07
2019-05-13T05:22:58.667Z,2.90
2019-05-13T05:26:25.927Z,3.57
2019-05-13T05:29:53.168Z,2.97
2019-05-13T05:33:21.413Z,3.13
2019-05-13T05:40:06.609Z,2.93
2019-05-13T05:43:07.093Z,3.27
2019-05-13T05:46:07.902Z,2.93
2019-05-13T05:49:08.525Z,2.73
2019-05-13T05:52:09.261Z,3.43
2019-05-13T05:55:11.302Z,3.40
2019-05-13T05:58:22.942Z,3.27
2019-05-13T06:01:32.792Z,2.80
2019-05-13T06:04:43.147Z,2.83
2019-05-13T06:07:51.427Z,3.13
2019-05-13T06:11:01.324Z,2.70
2019-05-13T06:14:11.236Z,2.53
2019-05-13T06:17:21.829Z,2.60
2019-05-13T06:20:31.531Z,2.37
2019-05-13T06:23:41.706Z,2.50
2019-05-13T06:26:48.973Z,2.67
2019-05-13T06:29:57.076Z,3.07
2019-05-13T06:33:05.230Z,2.60
2019-05-13T06:36:13.388Z,2.70
2019-05-13T06:39:14.431Z,2.60
2019-05-13T06:42:14.868Z,2.60
2019-05-13T06:45:15.817Z,2.90
2019-05-13T06:48:16.670Z,3.10
2019-05-13T06:51:17.412Z,2.40
2019-05-13T06:54:18.371Z,2.73
2019-05-13T06:57:19.126Z,2.77
2019-05-13T07:00:21.609Z,2.77
2019-05-13T07:03:22.049Z,2.63
2019-05-13T07:06:32.269Z,1.90
2019-05-13T07:09:42.689Z,2.70
2019-05-13T07:12:51.892Z,2.43
2019-05-13T07:16:01.379Z,2.33
2019-05-13T07:19:11.651Z,2.20
2019-05-13T07:22:22.717Z,2.20
2019-05-13T07:25:29.098Z,2.77
2019-05-13T07:28:37.122Z,2.43
2019-05-13T07:31:45.201Z,2.30
2019-05-13T07:34:53.572Z,2.20
2019-05-13T07:37:55.306Z,2.33
2019-05-13T07:40:56.016Z,2.60
2019-05-13T07:43:56.878Z,2.30
2019-05-13T07:46:57.678Z,2.50
2019-05-13T07:49:58.345Z,2.00
2019-05-13T07:53:02.080Z,1.97
2019-05-13T07:56:01.976Z,2.90
2019-05-13T07:59:03.217Z,2.53
2019-05-13T08:02:04.244Z,2.40
2019-05-13T08:05:04.753Z,2.30
2019-05-13T08:08:05.443Z,2.60
2019-05-13T08:11:06.383Z,2.27
2019-05-13T08:14:07.337Z,2.10
2019-05-13T08:17:08.070Z,1.90
2019-05-13T08:20:08.841Z,2.20
2019-05-13T08:23:11.768Z,1.77
2019-05-13T08:26:12.558Z,1.87
2019-05-13T08:29:13.162Z,2.20
2019-05-13T08:32:13.910Z,2.20
2019-05-13T08:35:14.737Z,2.70
2019-05-13T08:38:15.581Z,1.70
2019-05-13T08:41:19.375Z,1.77
2019-05-13T08:44:21.457Z,1.90
2019-05-13T08:47:22.377Z,1.40
2019-05-13T08:50:23.686Z,1.67
2019-05-13T08:53:24.318Z,1.70
2019-05-13T08:56:25.117Z,1.67
2019-05-13T08:59:26.065Z,1.90
2019-05-13T09:02:26.873Z,1.33
2019-05-13T09:05:27.784Z,1.67
2019-05-13T09:08:28.737Z,1.70
2019-05-13T09:11:31.503Z,1.70
2019-05-13T09:14:32.774Z,1.60
2019-05-13T09:17:33.587Z,1.63
2019-05-13T09:20:34.493Z,1.83
2019-05-13T09:23:35.486Z,1.73
2019-05-13T09:26:36.406Z,1.67
2019-05-13T09:29:37.226Z,1.70
2019-05-13T09:32:38.101Z,1.50
2019-05-13T09:35:39.046Z,1.63
2019-05-13T09:38:41.813Z,1.50
2019-05-13T09:41:31.931Z,1.23
2019-05-13T09:44:41.907Z,1.40
2019-05-13T09:47:49.529Z,1.30
2019-05-13T09:50:57.536Z,1.07
2019-05-13T09:54:05.577Z,1.47
2019-05-13T09:57:13.606Z,1.30
2019-05-13T10:00:21.829Z,1.27
2019-05-13T10:03:33.142Z,1.37
2019-05-13T10:06:42.069Z,1.20
2019-05-13T10:09:52.133Z,1.00
2019-05-13T10:13:09.229Z,1.10
2019-05-13T10:16:12.427Z,1.53
2019-05-13T10:19:01.792Z,1.30
2019-05-13T10:22:11.745Z,1.13
2019-05-13T10:25:19.186Z,1.10
2019-05-13T10:28:27.388Z,1.10
2019-05-13T10:31:35.479Z,1.23
2019-05-13T10:34:43.849Z,0.80
2019-05-13T10:37:44.995Z,1.00
2019-05-13T10:40:45.797Z,1.03
2019-05-13T10:43:46.831Z,0.93
2019-05-13T10:46:47.304Z,1.00
2019-05-13T10:49:47.750Z,1.13
2019-05-13T10:52:48.558Z,1.20
2019-05-13T10:55:51.703Z,1.00
2019-05-13T10:58:53.399Z,1.20
2019-05-13T11:01:54.941Z,1.20
2019-05-13T11:04:55.345Z,0.90
2019-05-13T11:07:56.191Z,1.10
2019-05-13T11:10:57.101Z,1.00
2019-05-13T11:14:03.697Z,1.00
2019-05-13T11:17:01.560Z,1.17
2019-05-13T11:20:03.660Z,1.13
2019-05-13T11:23:04.670Z,1.03
2019-05-13T11:26:05.561Z,1.23
2019-05-13T11:29:06.405Z,1.47
2019-05-13T11:32:07.325Z,1.20
2019-05-13T11:34:56.201Z,1.07
2019-05-13T11:37:57.114Z,1.43
2019-05-13T11:40:57.519Z,1.30
2019-05-13T11:44:12.101Z,1.10
2019-05-13T11:47:02.295Z,0.80
2019-05-13T11:50:04.113Z,0.90
2019-05-13T11:53:30.095Z,0.87
2019-05-13T11:56:07.709Z,0.87
2019-05-13T11:59:08.833Z,0.90
2019-05-13T12:02:13.223Z,1.20
2019-05-13T12:05:12.578Z,0.80
2019-05-13T12:08:13.046Z,1.10
2019-05-13T12:11:14.211Z,0.80
2019-05-13T12:14:37.249Z,1.60
2019-05-13T12:17:17.458Z,0.90
2019-05-13T12:20:18.039Z,1.00
2019-05-13T12:23:18.793Z,1.00
2019-05-13T12:26:19.599Z,1.10
2019-05-13T12:29:20.496Z,1.20
2019-05-13T12:32:22.420Z,0.97
2019-05-13T12:35:23.917Z,1.10
2019-05-13T12:38:24.577Z,0.90
2019-05-13T12:41:25.523Z,1.20
2019-05-13T12:44:26.505Z,0.90
2019-05-13T12:47:27.457Z,1.00
2019-05-13T12:50:28.438Z,1.10
2019-05-13T12:53:31.898Z,1.40
2019-05-13T12:56:33.386Z,1.00
2019-05-13T12:59:34.186Z,0.97
2019-05-13T13:02:34.925Z,1.27
2019-05-13T13:05:37.044Z,1.03
2019-05-13T13:08:47.367Z,0.90
2019-05-13T13:11:43.768Z,0.80
2019-05-13T13:14:44.635Z,0.70
2019-05-13T13:17:45.337Z,0.90
2019-05-13T13:20:46.001Z,1.00
2019-05-13T13:23:46.817Z,0.73
2019-05-13T13:26:47.610Z,1.03
2019-05-13T13:29:48.231Z,1.10
2019-05-13T13:32:54.164Z,1.07
2019-05-13T13:35:59.500Z,1.00
2019-05-13T13:38:56.194Z,1.40
2019-05-13T13:41:57.665Z,1.17
2019-05-13T13:44:58.450Z,1.53
2019-05-13T13:48:03.941Z,1.30
2019-05-13T13:51:04.952Z,1.30
2019-05-13T13:54:04.866Z,1.20
2019-05-13T13:57:05.694Z,1.33
2019-05-13T14:00:26.239Z,1.37
2019-05-13T14:03:12.182Z,1.40
2019-05-13T14:06:12.697Z,1.40
2019-05-13T14:09:13.625Z,1.40
2019-05-13T14:12:14.346Z,1.63
2019-05-13T14:15:14.998Z,2.03
2019-05-13T14:18:15.550Z,1.30
2019-05-13T14:21:16.390Z,1.17
2019-05-13T14:24:17.125Z,1.40
2019-05-13T14:27:18.226Z,1.37
2019-05-13T14:30:18.773Z,1.00
2019-05-13T14:33:19.563Z,1.20
2019-05-13T14:36:22.705Z,1.00
2019-05-13T14:39:22.842Z,1.20
2019-05-13T14:42:23.502Z,1.00
2019-05-13T14:45:24.310Z,0.93
2019-05-13T14:48:25.257Z,1.27
2019-05-13T14:51:25.985Z,1.30
2019-05-13T14:54:26.834Z,1.33
2019-05-13T14:57:27.409Z,1.27
2019-05-13T15:00:28.414Z,1.20
2019-05-13T15:03:29.178Z,1.07
2019-05-13T15:06:32.651Z,1.20
2019-05-13T15:09:32.766Z,0.97
2019-05-13T15:12:33.638Z,1.27
2019-05-13T15:15:34.521Z,1.13
2019-05-13T15:18:35.465Z,0.97
2019-05-13T15:21:24.320Z,1.10
2019-05-13T15:24:32.525Z,0.80
2019-05-13T15:27:42.223Z,0.80
2019-05-13T15:30:51.860Z,1.30
2019-05-13T15:34:02.599Z,1.10
2019-05-13T15:40:36.709Z,1.00
2019-05-13T15:43:44.749Z,1.00
2019-05-13T15:46:54.450Z,0.90
2019-05-13T15:50:02.702Z,0.97
2019-05-13T15:53:12.934Z,1.40
2019-05-13T15:56:22.704Z,0.83
2019-05-13T15:59:31.774Z,0.90
2019-05-13T16:02:41.938Z,0.90
2019-05-13T16:05:51.688Z,0.90
2019-05-13T16:08:59.253Z,1.10
2019-05-13T16:12:08.960Z,1.03
2019-05-13T16:14:57.749Z,0.90
2019-05-13T16:18:05.781Z,1.00
2019-05-13T16:21:15.503Z,1.00
2019-05-13T16:24:23.535Z,0.77
2019-05-13T16:27:31.552Z,0.63
2019-05-13T16:30:41.907Z,0.90
2019-05-13T16:33:49.297Z,0.77
2019-05-13T16:36:57.313Z,0.80
2019-05-13T16:39:57.950Z,0.93
2019-05-13T16:43:01.206Z,0.90
2019-05-13T16:46:01.867Z,0.93
2019-05-13T16:49:02.504Z,0.87
2019-05-13T16:52:03.321Z,0.97
2019-05-13T16:55:03.957Z,0.97
2019-05-13T16:58:04.473Z,1.20
2019-05-13T17:01:05.346Z,1.10
2019-05-13T17:04:06.214Z,0.97
2019-05-13T17:07:07.061Z,0.90
2019-05-13T17:10:07.838Z,0.80
2019-05-13T17:13:08.441Z,0.77
2019-05-13T17:16:09.138Z,0.90
2019-05-13T17:19:11.858Z,0.70
2019-05-13T17:22:12.622Z,0.90
2019-05-13T17:25:13.402Z,1.10
2019-05-13T17:28:14.119Z,1.10
2019-05-13T17:31:14.682Z,0.80
2019-05-13T17:34:15.377Z,0.90
2019-05-13T17:37:16.057Z,1.60
2019-05-13T17:40:16.803Z,0.77
2019-05-13T17:43:17.786Z,0.80
2019-05-13T17:46:18.703Z,1.10
2019-05-13T17:49:07.489Z,0.80
2019-05-13T17:52:15.526Z,1.07
2019-05-13T17:55:24.593Z,0.87
2019-05-13T17:58:25.325Z,1.00
2019-05-13T18:01:26.190Z,1.20
2019-05-13T18:04:26.982Z,0.90
2019-05-13T18:07:27.791Z,0.83
2019-05-13T18:10:28.629Z,1.20
2019-05-13T18:13:29.462Z,1.07
2019-05-13T18:16:18.252Z,0.80
2019-05-13T18:19:26.261Z,0.87
2019-05-13T18:22:34.293Z,1.00
2019-05-13T18:25:42.354Z,0.90
2019-05-13T18:28:51.494Z,0.90
2019-05-13T18:31:42.040Z,0.93
2019-05-13T18:34:50.309Z,0.90
2019-05-13T18:37:50.857Z,1.30
2019-05-13T18:40:52.611Z,0.97
2019-05-13T18:43:55.043Z,0.77
2019-05-13T18:46:55.739Z,1.00
2019-05-13T18:49:56.583Z,0.93
2019-05-13T18:52:57.449Z,0.97
2019-05-13T18:55:58.106Z,1.03
2019-05-13T18:59:01.482Z,1.00
2019-05-13T19:02:01.848Z,0.77
2019-05-13T19:05:02.561Z,1.17
2019-05-13T19:08:03.249Z,0.93
2019-05-13T19:11:04.353Z,0.90
2019-05-13T19:14:05.118Z,1.00
2019-05-13T19:17:06.386Z,1.20
2019-05-13T19:20:07.093Z,0.87
2019-05-13T19:23:07.905Z,0.80
2019-05-13T19:26:11.137Z,0.77
2019-05-13T19:29:11.699Z,1.00
2019-05-13T19:32:12.608Z,0.87
2019-05-13T19:35:14.029Z,0.70
2019-05-13T19:38:15.052Z,1.00
2019-05-13T19:41:15.652Z,0.70
2019-05-13T19:44:16.510Z,1.57
2019-05-13T19:47:17.417Z,1.23
2019-05-13T19:50:18.229Z,0.90
2019-05-13T19:53:18.982Z,0.90
2019-05-13T19:56:21.410Z,1.00
2019-05-13T19:59:22.734Z,1.57
2019-05-13T20:02:23.486Z,2.00
2019-05-13T20:05:24.401Z,1.40
2019-05-13T20:08:25.277Z,1.27
2019-05-13T20:11:25.957Z,1.87
2019-05-13T20:14:26.785Z,1.10
2019-05-13T20:17:27.554Z,1.27
2019-05-13T20:20:28.340Z,0.97
2019-05-13T20:23:17.141Z,1.40
2019-05-13T20:26:25.149Z,0.97
2019-05-13T20:29:33.182Z,1.13
2019-05-13T20:32:41.192Z,0.90
2019-05-13T20:35:49.226Z,0.90
2019-05-13T20:38:51.585Z,1.20
2019-05-13T20:41:55.697Z,1.07
2019-05-13T20:44:54.830Z,0.90
2019-05-13T20:47:55.553Z,1.10
2019-05-13T20:50:56.317Z,0.97
2019-05-13T20:53:56.922Z,1.20
2019-05-13T20:56:57.513Z,1.03
2019-05-13T20:59:58.317Z,1.10
2019-05-13T21:02:59.009Z,1.27
2019-05-13T21:05:59.821Z,1.00
2019-05-13T21:09:01.585Z,0.90
2019-05-13T21:12:02.817Z,1.37
2019-05-13T21:15:03.761Z,1.70
2019-05-13T21:18:04.329Z,1.10
2019-05-13T21:21:05.405Z,1.27
2019-05-13T21:24:06.082Z,1.73
2019-05-13T21:27:06.721Z,1.60
2019-05-13T21:30:07.606Z,1.30
2019-05-13T21:32:56.413Z,1.37
2019-05-13T21:36:04.518Z,1.23
2019-05-13T21:39:05.819Z,1.73
2019-05-13T21:42:06.238Z,1.30
2019-05-13T21:45:07.376Z,1.30
2019-05-13T21:48:08.150Z,1.50
2019-05-13T21:50:56.953Z,1.23
2019-05-13T21:54:04.993Z,1.27
2019-05-13T21:57:13.018Z,1.47
2019-05-13T22:00:41.800Z,1.20
2019-05-13T22:03:51.511Z,1.27
2019-05-13T22:07:01.611Z,1.53
2019-05-13T22:10:10.995Z,1.30
2019-05-13T22:13:19.073Z,1.10
2019-05-13T22:16:27.129Z,1.20
2019-05-13T22:19:35.141Z,1.30
2019-05-13T22:22:43.165Z,1.37
2019-05-13T22:25:51.938Z,1.27
2019-05-13T22:29:02.854Z,1.80
2019-05-13T22:32:11.324Z,1.53
2019-05-13T22:35:21.750Z,1.40
2019-05-13T22:38:23.189Z,1.63
2019-05-13T22:41:23.974Z,1.70
2019-05-13T22:44:24.822Z,1.80
2019-05-13T22:47:25.737Z,1.50
2019-05-13T22:50:26.534Z,1.80
2019-05-13T22:53:27.394Z,1.60
2019-05-13T22:56:28.437Z,1.60
2019-05-13T22:59:29.353Z,1.70
2019-05-13T23:02:33.366Z,1.57
2019-05-13T23:05:33.341Z,1.53
2019-05-13T23:08:34.037Z,1.30
2019-05-13T23:11:34.893Z,1.50
2019-05-13T23:14:35.801Z,1.40
2019-05-13T23:17:36.746Z,1.43
2019-05-13T23:20:37.573Z,1.30
2019-05-13T23:23:38.212Z,1.30
2019-05-13T23:26:38.957Z,1.40
2019-05-13T23:29:41.239Z,1.10
2019-05-13T23:32:41.874Z,1.40
2019-05-13T23:35:42.601Z,1.40
2019-05-13T23:38:43.530Z,1.57
2019-05-13T23:41:43.962Z,1.33
2019-05-13T23:44:44.988Z,1.53
2019-05-13T23:47:46.205Z,1.47
2019-05-13T23:50:46.953Z,1.40
2019-05-13T23:53:47.588Z,1.37
2019-05-13T23:56:48.237Z,1.63
2019-05-13T23:59:50.925Z,1.40
